Aérodrome :
LOGIN :

S'inscrire | Disclaimer

   EN    FR    IT 

 










Légende :    VFR   VFR Marginal   IFR   IFR Intensif   IFR Très Intensif
Visi : 
Plafond : 
>= 8 km
>= 3000ft
5 à 8 km
1000 à 3000 ft
1500m à 5 km
500 à 1000 ft
800 à 1500m
200 à 500 ft
< 800m
< 200 ft
Symboles :   Orages  Brouillard  Fortes neiges  Fortes précipitations  Vent > 20 kt
SIGMETs :   Divers  Orages  Givrage  Turbulence  Onde Orograph.  Cendres Volcan.







- Altitude de l'aérodrome : 297 ft


EGVP - Middle Wallop

DERNIER METAR :
  • 221950Z AUTO 28008KT 9999 // FEW042/// 12/09 Q1012

METARs EXPIRÉS :
  • 221850Z AUTO 26007KT 9999 // FEW050/// 14/09 Q1011
  • 221750Z AUTO 28011KT 9999 // BKN050/// 16/09 Q1010
  • 221650Z AUTO 28010KT 9999 // SCT060/// 17/08 Q1010

Prévision TAF périmée.
ATIS : +44 1980 674 142
Pas de NOTAMs connus pour ce terrain.
1 SIGMET publié pour la FIR London (EGTT) :
 
Orages noyés dans la masse
EGTT SIGMET 04 VALID 221900/222200 EGRR
EGTT LONDON FIR EMBD TS FCST WI N5455 E00437 - N5237 E00248 - N5237 E00123 - N5456 E00245 - N5455 E00437 TOP FL310 MOV ENE 30KT NC=



MET'MAP, la Météo Aéronautique d'un coup d'oeil ! - Copyright ORBIFLY Décembre 2007 - Disclaimer

ORBIFLY MET'MAP TEAM :

Programmation & Développement : Alexandra Zaïnal
Conception & Développement : Baudouin d'Aumeries
Co-Programmation & Développement : Marc-Olivier Méhu
Soutien technique & logistique : Manuel Goepfert

Contact : metmap@orbifly.com




SOURCES & CREDITS :

   NOAA